COD Airport (Yellowstone Rgnl) Information

FAA: COD - ICAO: KCOD

COD Airport Location

State Wyoming
County Park
City Cody
COD Airport is 2 miles southeast of Cody, WY.
Latitude 44-31-12.7000N
Longitude 109-01-25.7000W
Elevation 5,102ft

KCOD Airport METARs

METAR KCOD 281256Z AUTO 21005KT 10SM CLR M02/M04 A3025 RMK AO2 SLP269 T10221044 FZRANO
Altimeter 30.25"
Temperature -2.2°C (28.0°F)
Wind 210° at 5KT
Clouds Skies are clear.
Visibility 10.0mi
Time observed: 2021-10-28T12:56:00Z

COD Airport Details

Status Operational
Activation November 1937
Ownership Public
Usage Public
Chart GREAT FALLS
ATC on-site No
Beacon schedule sunset-sunrise
Beacon color clear green

COD Airport Contacts

Owner CITY OF CODY
Owner address 1338 RUMSEY AVE, CODY, WY 82414
Owner phone 307-527-7511
Manager CHRISTOPER & CHRISTINE HINNENKAMP
Manager address 1037 260TH ST, WOODVILLE, WI 54028
Manager phone 715-698-4253

COD Airport (Yellowstone Rgnl) Radio Frequencies

COD (Airport) Radio Frequencies

UNICOM 122.8
Common traffic advisory frequency (CTAF) 122.8